Aeroporto :







RITROVATECI SU...

 
LOGIN :

Iscrizione | Disclaimer

   EN    FR    IT 

 









Sommario :    VFR   VFR Marginale   IFR   IFR Intensivo   IFR Molto Intensivo
Visibilità : 
Base nubi : 
>= 8 km
>= 3000ft
5 / 8 km
1000 / 3000 ft
1500m / 5 km
500 / 1000 ft
800 / 1500m
200 / 500 ft
< 800m
< 200 ft
Simboli :   Temporali  Nebbia  Neve Forte  Precipitazioni Forti  Vento > 20 kt






- Altitudine del aeroporto : 26 ft
- Codice IATA : CAY


SOCA - Rochambeau

ULTIMO METAR :
  • 012000Z AUTO 06010KT 9999 BKN027 BKN037 30/23 Q1011 NOSIG

METARs OBSOLETI :
  • 011930Z AUTO 05011KT 010V070 9999 FEW030 BKN047 BKN056 29/22 Q1011 NOSIG
  • 011900Z AUTO 06013KT 9999 BKN031 BKN037 BKN060 29/22 Q1011 NOSIG
  • 011830Z AUTO 05011KT 020V080 9999 SCT031 BKN050 BKN062 30/22 Q1012 NOSIG
  • 011800Z AUTO 04011KT 010V070 9999 BKN031 BKN058 30/22 Q1012 NOSIG
  • 011730Z AUTO 05011KT 9999 BKN034 BKN050 BKN220 30/22 Q1012 TEMPO 3000 SHRA SCT015TCU

TAF TAF SOCA
Valido dal 01 a 18 ore il 02 a 18 ore UTC


011600Z 0118/0218 06012KT 9999 SCT025
BECMG 0122/0124 VRB02KT
TEMPO 0206/0218 2000 SHRA SCT007 BKN012TCU
BECMG 0212/0214 08010KT
FIR SOOO / Sudamerica



MetMap, La meteo Aeronautica in un colpo d'occhio ! - Copyright ORBIFLY Dicembre 2007 - Disclaimer

ORBIFLY MET'MAP TEAM :

Programmazione e sviluppo : Alexandra Zaïnal
Concezione : Baudouin d'Aumeries
Aiuto per la programmazione : Marc-Olivier Méhu
Supporto tecnico e logistico : Manuel Goepfert
Aiuto per la traduzione : Arnaldo La Scala

Contatto : metmap@orbifly.com




FONTI E CREDITI :

   NOAA